createdAt,value
2023-03-03T00:02:04.525Z,1.290283
2023-03-03T00:05:29.690Z,1.300354
2023-03-03T00:08:54.923Z,1.401062
2023-03-03T00:12:20.167Z,1.37085
2023-03-03T00:15:45.424Z,1.37085
2023-03-03T00:19:10.572Z,1.320496
2023-03-03T00:22:36.472Z,1.441345
2023-03-03T00:26:01.667Z,1.50177
2023-03-03T00:29:26.906Z,1.542053
2023-03-03T00:32:52.092Z,1.37085
2023-03-03T00:36:17.306Z,1.320496
2023-03-03T00:39:42.519Z,1.421204
2023-03-03T00:43:07.719Z,1.511841
2023-03-03T00:46:32.972Z,1.50177
2023-03-03T00:49:58.177Z,1.481628
2023-03-03T00:53:23.399Z,1.50177
2023-03-03T00:56:48.597Z,1.511841
2023-03-03T01:00:13.805Z,1.552124
2023-03-03T01:03:39.000Z,1.521912
2023-03-03T01:07:04.234Z,1.451416
2023-03-03T01:10:29.476Z,1.411133
2023-03-03T01:13:54.740Z,1.37085
2023-03-03T01:17:19.899Z,1.542053
2023-03-03T01:20:45.143Z,1.683044
2023-03-03T01:24:10.324Z,1.683044
2023-03-03T01:27:35.540Z,1.542053
2023-03-03T01:31:00.800Z,1.552124
2023-03-03T01:34:25.993Z,1.511841
2023-03-03T01:37:51.225Z,1.421204
2023-03-03T01:41:16.415Z,1.50177
2023-03-03T01:44:41.639Z,1.330566
2023-03-03T01:48:06.831Z,1.270142
2023-03-03T01:51:32.062Z,1.219788
2023-03-03T01:54:57.300Z,1.290283
2023-03-03T01:58:22.482Z,1.290283
2023-03-03T02:01:47.744Z,1.300354
2023-03-03T02:05:12.896Z,1.199646
2023-03-03T02:08:38.111Z,1.290283
2023-03-03T02:12:03.383Z,1.229858
2023-03-03T02:15:28.591Z,1.290283
2023-03-03T02:18:53.781Z,1.37085
2023-03-03T02:22:19.003Z,1.441345
2023-03-03T02:25:44.214Z,1.441345
2023-03-03T02:29:09.444Z,1.239929
2023-03-03T02:32:34.695Z,1.199646
2023-03-03T02:35:59.921Z,1.290283
2023-03-03T02:39:25.066Z,1.300354
2023-03-03T02:42:50.262Z,1.290283
2023-03-03T02:46:15.526Z,1.239929
2023-03-03T02:49:40.724Z,1.300354
2023-03-03T02:53:05.946Z,1.330566
2023-03-03T02:56:31.159Z,1.421204
2023-03-03T02:59:56.354Z,1.50177
2023-03-03T03:03:21.593Z,1.542053
2023-03-03T03:06:46.772Z,1.521912
2023-03-03T03:10:11.991Z,1.37085
2023-03-03T03:13:37.176Z,1.401062
2023-03-03T03:17:02.411Z,1.451416
2023-03-03T03:20:27.638Z,1.481628
2023-03-03T03:23:52.814Z,1.421204
2023-03-03T03:27:18.034Z,1.411133
2023-03-03T03:30:43.256Z,1.411133
2023-03-03T03:34:08.463Z,1.411133
2023-03-03T03:37:33.695Z,1.451416
2023-03-03T03:40:58.880Z,1.451416
2023-03-03T03:44:24.090Z,1.481628
2023-03-03T03:47:49.288Z,1.441345
2023-03-03T03:51:14.532Z,1.330566
2023-03-03T03:54:39.771Z,1.219788
2023-03-03T03:58:04.958Z,1.290283
2023-03-03T04:01:30.168Z,1.290283
2023-03-03T04:04:55.370Z,1.239929
2023-03-03T04:08:20.574Z,1.239929
2023-03-03T04:11:45.834Z,1.149292
2023-03-03T04:15:11.013Z,1.239929
2023-03-03T04:18:36.222Z,1.300354
2023-03-03T04:22:01.442Z,1.330566
2023-03-03T04:25:26.657Z,1.330566
2023-03-03T04:28:51.893Z,1.290283
2023-03-03T04:32:17.141Z,1.058655
2023-03-03T04:35:42.308Z,1.038513
2023-03-03T04:39:07.498Z,1.018372
2023-03-03T04:42:32.701Z,0.99823
2023-03-03T04:45:57.961Z,0.968018
2023-03-03T04:49:23.109Z,0.907593
2023-03-03T04:52:48.308Z,0.837097
2023-03-03T04:56:13.516Z,0.897522
2023-03-03T04:59:38.729Z,0.837097
2023-03-03T05:03:03.974Z,0.726318
2023-03-03T05:06:29.202Z,0.595398
2023-03-03T05:09:54.414Z,0.575256
2023-03-03T05:13:19.610Z,0.675964
2023-03-03T05:16:44.830Z,0.675964
2023-03-03T05:20:10.064Z,0.74646
2023-03-03T05:23:35.255Z,0.696106
2023-03-03T05:27:00.452Z,0.756531
2023-03-03T05:30:25.665Z,0.645752
2023-03-03T05:33:50.878Z,0.545044
2023-03-03T05:37:16.127Z,0.565186
2023-03-03T05:40:41.288Z,0.504761
2023-03-03T05:44:06.537Z,0.293274
2023-03-03T05:47:31.752Z,0.323486
2023-03-03T05:50:56.997Z,0.323486
2023-03-03T05:54:22.238Z,0.414124
2023-03-03T05:57:47.426Z,0.474548
2023-03-03T06:01:12.638Z,0.414124
2023-03-03T06:04:37.847Z,0.353699
2023-03-03T06:08:03.091Z,0.232849
2023-03-03T06:11:28.329Z,0.36377
2023-03-03T06:14:53.527Z,0.464478
2023-03-03T06:18:18.735Z,0.464478
2023-03-03T06:21:43.957Z,0.464478
2023-03-03T06:25:09.191Z,0.383911
2023-03-03T06:28:34.462Z,0.464478
2023-03-03T06:31:59.737Z,0.444336
2023-03-03T06:35:24.918Z,0.474548
2023-03-03T06:38:50.115Z,0.444336
2023-03-03T06:42:15.322Z,0.333557
2023-03-03T06:45:40.563Z,0.353699
2023-03-03T06:49:05.743Z,0.514832
2023-03-03T06:52:30.993Z,0.534973
2023-03-03T06:55:56.197Z,0.655823
2023-03-03T06:59:21.438Z,0.464478
2023-03-03T07:02:46.649Z,0.263062
2023-03-03T07:06:11.846Z,0.172424
2023-03-03T07:09:37.058Z,0.232849
2023-03-03T07:13:02.299Z,0.202637
2023-03-03T07:16:27.557Z,0.313416
2023-03-03T07:19:52.751Z,0.393982
2023-03-03T07:23:17.957Z,0.383911
2023-03-03T07:26:43.155Z,0.202637
2023-03-03T07:30:08.428Z,0.323486
2023-03-03T07:33:33.656Z,0.313416
2023-03-03T07:36:58.895Z,0.142212
2023-03-03T07:40:24.815Z,0.142212
2023-03-03T07:43:50.141Z,0.071716
2023-03-03T07:47:15.364Z,0.081787
2023-03-03T07:50:40.579Z,0.142212
2023-03-03T07:54:05.831Z,0.24292
2023-03-03T07:57:31.064Z,0.031433
2023-03-03T08:00:56.362Z,0.041504
2023-03-03T08:04:21.734Z,-0.00885
2023-03-03T08:07:46.796Z,0.182495
2023-03-03T08:11:12.039Z,0.031433
2023-03-03T08:14:37.216Z,-0.069275
2023-03-03T08:18:02.513Z,-0.099487
2023-03-03T08:21:27.768Z,0.142212
2023-03-03T08:24:52.996Z,0.172424
2023-03-03T08:28:18.220Z,0.152283
2023-03-03T08:31:43.532Z,0.36377
2023-03-03T08:35:08.859Z,0.49469
2023-03-03T08:38:34.083Z,0.565186
2023-03-03T08:41:59.299Z,0.595398
2023-03-03T08:45:24.539Z,0.414124
2023-03-03T08:48:49.794Z,0.36377
2023-03-03T08:52:14.996Z,0.36377
2023-03-03T08:55:40.197Z,0.444336
2023-03-03T08:59:05.472Z,0.575256
2023-03-03T09:02:30.933Z,0.464478
2023-03-03T09:05:56.214Z,0.24292
2023-03-03T09:09:21.455Z,0.112
2023-03-03T09:12:46.726Z,0.323486
2023-03-03T09:16:12.378Z,0.313416
2023-03-03T09:19:37.659Z,0.383911
2023-03-03T09:23:02.850Z,0.414124
2023-03-03T09:26:28.376Z,0.293274
2023-03-03T09:29:53.347Z,0.031433
2023-03-03T09:33:18.869Z,0.101929
2023-03-03T09:36:44.115Z,0.041504
2023-03-03T09:40:09.314Z,0.071716
2023-03-03T09:43:34.538Z,0.263062
2023-03-03T09:46:59.789Z,0.514832
2023-03-03T09:50:24.962Z,0.756531
2023-03-03T09:53:50.217Z,0.464478
2023-03-03T09:57:15.388Z,0.49469
2023-03-03T10:00:40.628Z,0.675964
2023-03-03T10:04:05.936Z,0.716248
2023-03-03T10:07:31.179Z,0.595398
2023-03-03T10:10:56.433Z,0.776672
2023-03-03T10:14:21.621Z,0.968018
2023-03-03T10:17:46.836Z,1.11908
2023-03-03T10:21:12.104Z,0.74646
2023-03-03T10:24:37.309Z,0.675964
2023-03-03T10:28:02.582Z,0.474548
2023-03-03T10:31:28.501Z,0.24292
2023-03-03T10:34:53.044Z,0.202637
2023-03-03T10:38:18.289Z,0.424194
2023-03-03T10:41:43.499Z,0.696106
2023-03-03T10:45:08.764Z,0.957947
2023-03-03T10:48:34.013Z,1.11908
2023-03-03T10:51:59.236Z,1.270142
2023-03-03T10:55:24.464Z,1.290283
2023-03-03T10:58:49.713Z,1.229858
2023-03-03T11:02:14.891Z,1.159363
2023-03-03T11:05:40.110Z,1.270142
2023-03-03T11:09:05.354Z,1.421204
2023-03-03T11:12:30.596Z,1.542053
2023-03-03T11:15:56.518Z,1.481628
2023-03-03T11:19:21.777Z,1.521912
2023-03-03T11:22:46.975Z,1.662903
2023-03-03T11:26:12.197Z,1.733398
2023-03-03T11:29:37.398Z,1.773682
2023-03-03T11:33:02.609Z,1.733398
2023-03-03T11:36:27.831Z,1.773682
2023-03-03T11:39:53.024Z,1.773682
2023-03-03T11:43:30.020Z,1.471558
2023-03-03T11:46:43.429Z,1.481628
2023-03-03T11:50:08.649Z,1.592407
2023-03-03T11:53:33.907Z,1.652832
2023-03-03T11:56:59.096Z,1.652832
2023-03-03T12:00:24.413Z,1.511841
2023-03-03T12:03:49.643Z,1.451416
2023-03-03T12:07:19.780Z,1.471558
2023-03-03T12:10:40.156Z,1.421204
2023-03-03T12:14:05.347Z,1.411133
2023-03-03T12:17:30.547Z,1.37085
2023-03-03T12:20:55.774Z,1.330566
2023-03-03T12:24:21.178Z,1.471558
2023-03-03T12:27:46.639Z,1.542053
2023-03-03T12:31:12.125Z,1.602478
2023-03-03T12:34:37.529Z,1.542053
2023-03-03T12:38:02.976Z,1.320496
2023-03-03T12:41:28.440Z,0.978088
2023-03-03T12:44:53.938Z,0.897522
2023-03-03T12:48:19.416Z,0.968018
2023-03-03T12:51:44.916Z,1.109009
2023-03-03T12:55:10.366Z,1.179504
2023-03-03T12:58:35.827Z,1.290283
2023-03-03T13:02:01.385Z,1.330566
2023-03-03T13:05:26.861Z,1.360779
2023-03-03T13:08:52.884Z,1.320496
2023-03-03T13:12:18.331Z,1.239929
2023-03-03T13:15:51.913Z,1.149292
2023-03-03T13:19:09.281Z,1.109009
2023-03-03T13:22:34.750Z,1.199646
2023-03-03T13:26:00.235Z,1.300354
2023-03-03T13:29:25.646Z,1.441345
2023-03-03T13:32:51.091Z,1.411133
2023-03-03T13:36:16.605Z,1.441345
2023-03-03T13:39:42.029Z,1.451416
2023-03-03T13:43:07.491Z,1.37085
2023-03-03T13:46:32.924Z,1.320496
2023-03-03T13:49:58.415Z,1.260071
2023-03-03T13:53:23.922Z,1.290283
2023-03-03T13:56:49.381Z,1.340637
2023-03-03T14:00:14.778Z,1.471558
2023-03-03T14:03:40.237Z,1.441345
2023-03-03T14:07:05.702Z,1.411133
2023-03-03T14:10:31.149Z,1.37085
2023-03-03T14:13:56.626Z,1.37085
2023-03-03T14:17:22.848Z,1.239929
2023-03-03T14:20:47.822Z,1.109009
2023-03-03T14:24:13.397Z,1.199646
2023-03-03T14:27:39.004Z,1.159363
2023-03-03T14:31:04.586Z,1.038513
2023-03-03T15:05:59.507Z,0.605469
2023-03-03T15:09:25.105Z,0.696106
2023-03-03T15:12:50.630Z,0.756531
2023-03-03T15:16:16.312Z,0.726318
2023-03-03T15:19:41.742Z,0.716248
2023-03-03T15:23:07.319Z,0.605469
2023-03-03T15:26:32.803Z,0.534973
2023-03-03T15:29:58.379Z,0.444336
2023-03-03T15:33:24.023Z,0.444336
2023-03-03T15:36:49.488Z,0.575256
2023-03-03T15:40:15.050Z,0.595398
2023-03-03T15:43:40.629Z,0.655823
2023-03-03T15:47:06.167Z,0.686035
2023-03-03T15:50:31.707Z,0.716248
2023-03-03T15:53:57.301Z,0.675964
2023-03-03T15:57:22.874Z,0.504761
2023-03-03T16:00:48.333Z,0.464478
2023-03-03T16:04:13.604Z,0.444336
2023-03-03T16:07:38.952Z,0.534973
2023-03-03T16:11:04.249Z,0.575256
2023-03-03T16:14:29.584Z,0.655823
2023-03-03T16:17:54.852Z,0.686035
2023-03-03T16:21:20.194Z,0.61554
2023-03-03T16:24:45.545Z,0.595398
2023-03-03T16:28:10.787Z,0.595398
2023-03-03T16:31:36.200Z,0.534973
2023-03-03T16:35:01.421Z,0.36377
2023-03-03T16:38:26.689Z,0.182495
2023-03-03T16:41:51.979Z,0.152283
2023-03-03T16:45:17.249Z,0.182495
2023-03-03T16:48:42.578Z,0.172424
2023-03-03T16:52:07.858Z,0.101929
2023-03-03T16:55:33.148Z,0.001221
2023-03-03T16:58:58.457Z,-0.159912
2023-03-03T17:02:23.698Z,-0.220337
2023-03-03T17:05:49.036Z,-0.250549
2023-03-03T17:09:26.665Z,-0.26062
2023-03-03T17:12:39.682Z,-0.190125
2023-03-03T17:16:05.110Z,-0.049133
2023-03-03T17:19:30.321Z,0.081787
2023-03-03T17:22:55.657Z,0.202637
2023-03-03T17:26:20.956Z,0.152283
2023-03-03T17:29:46.349Z,-0.109558
2023-03-03T17:33:11.688Z,-0.280762
2023-03-03T17:36:36.994Z,-0.250549
2023-03-03T17:40:02.389Z,-0.210266
2023-03-03T17:43:27.675Z,-0.220337
2023-03-03T17:46:53.038Z,-0.230408
2023-03-03T17:50:18.388Z,-0.079346
2023-03-03T17:53:43.740Z,-0.079346
2023-03-03T17:57:09.054Z,-0.028992
2023-03-03T18:00:34.368Z,-0.028992
2023-03-03T18:03:59.737Z,-0.109558
2023-03-03T18:07:25.019Z,-0.069275
2023-03-03T18:10:50.385Z,0.021362
2023-03-03T18:14:15.714Z,-0.039062
2023-03-03T18:17:40.945Z,-0.039062
2023-03-03T18:21:06.275Z,0.031433
2023-03-03T18:24:31.576Z,-0.139771
2023-03-03T18:27:56.839Z,-0.139771
2023-03-03T18:31:22.181Z,-0.109558
2023-03-03T18:34:47.944Z,-0.149841
2023-03-03T18:38:13.230Z,-0.159912
2023-03-03T18:41:38.545Z,-0.149841
2023-03-03T18:45:03.814Z,-0.159912
2023-03-03T18:48:29.143Z,-0.079346
2023-03-03T18:51:54.461Z,-0.079346
2023-03-03T18:55:19.790Z,-0.180054
2023-03-03T18:58:45.074Z,-0.159912
2023-03-03T19:02:10.417Z,-0.109558
2023-03-03T19:05:35.713Z,-0.028992
2023-03-03T19:09:01.003Z,0.041504
2023-03-03T19:12:26.262Z,-0.069275
2023-03-03T19:15:51.623Z,-0.079346
2023-03-03T19:19:16.840Z,0.001221
2023-03-03T19:22:42.176Z,-0.049133
2023-03-03T19:26:07.458Z,-0.149841
2023-03-03T19:29:32.990Z,-0.180054
2023-03-03T19:33:29.256Z,-0.099487
2023-03-03T19:36:55.996Z,-0.079346
2023-03-03T19:40:21.721Z,-0.069275
2023-03-03T19:43:47.163Z,-0.099487
2023-03-03T19:47:12.545Z,-0.190125
2023-03-03T19:50:37.887Z,-0.210266
2023-03-03T19:54:03.184Z,-0.210266
2023-03-03T19:57:28.458Z,-0.310974
2023-03-03T20:00:53.754Z,-0.421753
2023-03-03T20:04:19.073Z,-0.290833
2023-03-03T20:07:44.351Z,-0.180054
2023-03-03T20:11:09.664Z,-0.139771
2023-03-03T20:14:35.028Z,-0.139771
2023-03-03T20:18:00.274Z,-0.190125
2023-03-03T20:21:25.585Z,-0.039062
2023-03-03T20:24:50.887Z,-0.149841
2023-03-03T20:28:18.249Z,-0.149841
2023-03-03T20:31:41.546Z,-0.00885
2023-03-03T20:35:06.707Z,0.031433
2023-03-03T20:38:32.032Z,0.041504
2023-03-03T20:41:57.327Z,0.101929
2023-03-03T20:45:22.733Z,0.101929
2023-03-03T20:48:48.022Z,0.081787
2023-03-03T20:52:14.053Z,0.031433
2023-03-03T20:55:39.341Z,0.031433
2023-03-03T20:59:04.668Z,0.031433
2023-03-03T21:02:29.970Z,-0.028992
2023-03-03T21:05:56.010Z,0.041504
2023-03-03T21:09:22.536Z,0.132141
2023-03-03T21:12:47.699Z,0.081787
2023-03-03T21:16:13.017Z,0.152283
2023-03-03T21:19:38.041Z,0.132141
2023-03-03T21:23:03.261Z,0.132141
2023-03-03T21:26:28.385Z,0.142212
2023-03-03T21:29:53.559Z,0.071716
2023-03-03T21:33:18.753Z,0.031433
2023-03-03T21:36:43.922Z,0.031433
2023-03-03T21:40:09.123Z,0.021362
2023-03-03T21:43:34.266Z,0.001221
2023-03-03T21:46:59.424Z,-0.00885
2023-03-03T21:50:24.590Z,-0.00885
2023-03-03T21:53:49.780Z,-0.069275
2023-03-03T21:57:14.985Z,-0.139771
2023-03-03T22:00:40.136Z,-0.079346
2023-03-03T22:04:05.361Z,-0.099487
2023-03-03T22:07:30.563Z,-0.028992
2023-03-03T22:10:55.755Z,-0.00885
2023-03-03T22:14:20.950Z,0.071716
2023-03-03T22:17:46.083Z,0.021362
2023-03-03T22:21:11.222Z,-0.039062
2023-03-03T22:24:36.413Z,-0.028992
2023-03-03T22:28:01.571Z,-0.099487
2023-03-03T22:31:26.881Z,-0.109558
2023-03-03T22:34:51.906Z,0.001221
2023-03-03T22:38:17.090Z,0.041504
2023-03-03T22:41:42.275Z,0.021362
2023-03-03T22:45:07.440Z,0.031433
2023-03-03T22:48:32.630Z,-0.039062
2023-03-03T22:51:57.781Z,-0.079346
2023-03-03T22:55:22.929Z,-0.099487
2023-03-03T22:58:48.106Z,-0.028992
2023-03-03T23:02:13.286Z,-0.099487
2023-03-03T23:05:38.543Z,-0.099487
2023-03-03T23:09:03.619Z,-0.039062
2023-03-03T23:12:28.806Z,0.081787
2023-03-03T23:15:54.025Z,0.031433
2023-03-03T23:19:19.148Z,0.041504
2023-03-03T23:22:44.343Z,-0.159912
2023-03-03T23:26:09.500Z,-0.290833
2023-03-03T23:29:34.701Z,-0.391541
2023-03-03T23:32:59.889Z,-0.421753
2023-03-03T23:36:25.073Z,-0.542603
2023-03-03T23:39:50.247Z,-0.572815
2023-03-03T23:43:15.423Z,-0.492249
2023-03-03T23:46:40.586Z,-0.492249
2023-03-03T23:50:05.770Z,-0.623169
2023-03-03T23:53:30.934Z,-0.623169
2023-03-03T23:56:56.136Z,-0.623169
